sensor_id;sensor_type;location;lat;lon;timestamp;P1;durP1;ratioP1;P2;durP2;ratioP2
73733;SDS011;62039;50.000;9.064;2022-11-20T00:00:16;10.73;;;9.03;;
73733;SDS011;62039;50.000;9.064;2022-11-20T00:02:43;11.10;;;9.00;;
73733;SDS011;62039;50.000;9.064;2022-11-20T00:05:10;10.77;;;8.60;;
73733;SDS011;62039;50.000;9.064;2022-11-20T00:07:36;12.47;;;10.50;;
73733;SDS011;62039;50.000;9.064;2022-11-20T00:10:03;11.73;;;9.63;;
73733;SDS011;62039;50.000;9.064;2022-11-20T00:12:32;14.07;;;10.23;;
73733;SDS011;62039;50.000;9.064;2022-11-20T00:14:58;12.03;;;9.50;;
73733;SDS011;62039;50.000;9.064;2022-11-20T00:17:25;12.27;;;9.60;;
73733;SDS011;62039;50.000;9.064;2022-11-20T00:19:52;11.87;;;9.73;;
73733;SDS011;62039;50.000;9.064;2022-11-20T00:22:18;13.10;;;10.27;;
73733;SDS011;62039;50.000;9.064;2022-11-20T00:24:45;11.90;;;8.73;;
73733;SDS011;62039;50.000;9.064;2022-11-20T00:27:11;10.93;;;9.23;;
73733;SDS011;62039;50.000;9.064;2022-11-20T00:29:39;11.90;;;9.27;;
73733;SDS011;62039;50.000;9.064;2022-11-20T00:32:06;13.63;;;9.93;;
73733;SDS011;62039;50.000;9.064;2022-11-20T00:34:32;13.80;;;10.73;;
73733;SDS011;62039;50.000;9.064;2022-11-20T00:36:59;11.23;;;8.97;;
73733;SDS011;62039;50.000;9.064;2022-11-20T00:39:25;12.77;;;9.97;;
73733;SDS011;62039;50.000;9.064;2022-11-20T00:41:52;12.50;;;9.07;;
73733;SDS011;62039;50.000;9.064;2022-11-20T00:44:18;10.97;;;8.80;;
73733;SDS011;62039;50.000;9.064;2022-11-20T00:46:46;12.00;;;9.07;;
73733;SDS011;62039;50.000;9.064;2022-11-20T00:49:13;12.87;;;9.77;;
73733;SDS011;62039;50.000;9.064;2022-11-20T00:51:40;11.40;;;9.37;;
73733;SDS011;62039;50.000;9.064;2022-11-20T00:54:06;10.73;;;8.53;;
73733;SDS011;62039;50.000;9.064;2022-11-20T00:56:33;10.60;;;8.63;;
73733;SDS011;62039;50.000;9.064;2022-11-20T00:58:59;12.03;;;9.40;;
73733;SDS011;62039;50.000;9.064;2022-11-20T01:01:27;11.43;;;9.03;;
73733;SDS011;62039;50.000;9.064;2022-11-20T01:03:55;10.90;;;9.23;;
73733;SDS011;62039;50.000;9.064;2022-11-20T01:06:23;11.17;;;9.33;;
73733;SDS011;62039;50.000;9.064;2022-11-20T01:08:52;11.47;;;8.93;;
73733;SDS011;62039;50.000;9.064;2022-11-20T01:11:21;13.10;;;10.40;;
73733;SDS011;62039;50.000;9.064;2022-11-20T01:13:50;12.30;;;9.40;;
73733;SDS011;62039;50.000;9.064;2022-11-20T01:16:18;11.67;;;8.63;;
73733;SDS011;62039;50.000;9.064;2022-11-20T01:18:47;12.03;;;9.60;;
73733;SDS011;62039;50.000;9.064;2022-11-20T01:21:18;10.83;;;8.40;;
73733;SDS011;62039;50.000;9.064;2022-11-20T01:23:45;11.90;;;10.00;;
73733;SDS011;62039;50.000;9.064;2022-11-20T01:26:14;13.70;;;10.10;;
73733;SDS011;62039;50.000;9.064;2022-11-20T01:28:42;11.67;;;9.90;;
73733;SDS011;62039;50.000;9.064;2022-11-20T01:31:12;12.90;;;9.70;;
73733;SDS011;62039;50.000;9.064;2022-11-20T01:33:41;11.60;;;9.47;;
73733;SDS011;62039;50.000;9.064;2022-11-20T01:36:09;11.83;;;9.40;;
73733;SDS011;62039;50.000;9.064;2022-11-20T01:38:38;10.57;;;8.63;;
73733;SDS011;62039;50.000;9.064;2022-11-20T01:41:05;11.60;;;9.13;;
73733;SDS011;62039;50.000;9.064;2022-11-20T01:43:31;11.57;;;8.97;;
73733;SDS011;62039;50.000;9.064;2022-11-20T01:46:03;12.20;;;10.00;;
73733;SDS011;62039;50.000;9.064;2022-11-20T01:48:40;12.23;;;9.63;;
73733;SDS011;62039;50.000;9.064;2022-11-20T01:51:15;10.83;;;9.00;;
73733;SDS011;62039;50.000;9.064;2022-11-20T01:53:48;11.60;;;8.97;;
73733;SDS011;62039;50.000;9.064;2022-11-20T01:56:16;11.90;;;9.07;;
73733;SDS011;62039;50.000;9.064;2022-11-20T01:58:44;11.23;;;8.40;;
73733;SDS011;62039;50.000;9.064;2022-11-20T02:01:14;10.20;;;8.10;;
73733;SDS011;62039;50.000;9.064;2022-11-20T02:03:41;10.27;;;8.50;;
73733;SDS011;62039;50.000;9.064;2022-11-20T02:06:11;11.43;;;8.83;;
73733;SDS011;62039;50.000;9.064;2022-11-20T02:08:42;11.70;;;8.77;;
73733;SDS011;62039;50.000;9.064;2022-11-20T02:11:10;12.70;;;10.03;;
73733;SDS011;62039;50.000;9.064;2022-11-20T02:13:38;11.47;;;9.10;;
73733;SDS011;62039;50.000;9.064;2022-11-20T02:16:05;13.07;;;10.40;;
73733;SDS011;62039;50.000;9.064;2022-11-20T02:18:36;12.97;;;9.80;;
73733;SDS011;62039;50.000;9.064;2022-11-20T02:21:05;11.40;;;9.03;;
73733;SDS011;62039;50.000;9.064;2022-11-20T02:23:36;10.50;;;8.40;;
73733;SDS011;62039;50.000;9.064;2022-11-20T02:26:07;12.17;;;9.73;;
73733;SDS011;62039;50.000;9.064;2022-11-20T02:28:36;12.73;;;9.53;;
73733;SDS011;62039;50.000;9.064;2022-11-20T02:31:03;11.83;;;8.87;;
73733;SDS011;62039;50.000;9.064;2022-11-20T02:33:30;10.27;;;8.40;;
73733;SDS011;62039;50.000;9.064;2022-11-20T02:35:57;10.77;;;8.27;;
73733;SDS011;62039;50.000;9.064;2022-11-20T02:38:23;11.67;;;8.90;;
73733;SDS011;62039;50.000;9.064;2022-11-20T02:40:50;11.27;;;8.67;;
73733;SDS011;62039;50.000;9.064;2022-11-20T02:43:22;9.33;;;8.20;;
73733;SDS011;62039;50.000;9.064;2022-11-20T02:45:49;10.87;;;9.17;;
73733;SDS011;62039;50.000;9.064;2022-11-20T02:48:15;10.53;;;8.50;;
73733;SDS011;62039;50.000;9.064;2022-11-20T02:50:42;10.00;;;8.13;;
73733;SDS011;62039;50.000;9.064;2022-11-20T02:53:08;9.70;;;8.53;;
73733;SDS011;62039;50.000;9.064;2022-11-20T02:55:35;11.50;;;9.13;;
73733;SDS011;62039;50.000;9.064;2022-11-20T02:58:01;10.90;;;8.23;;
73733;SDS011;62039;50.000;9.064;2022-11-20T03:00:30;11.30;;;8.03;;
73733;SDS011;62039;50.000;9.064;2022-11-20T03:02:56;10.07;;;8.20;;
73733;SDS011;62039;50.000;9.064;2022-11-20T03:05:23;11.47;;;8.77;;
73733;SDS011;62039;50.000;9.064;2022-11-20T03:07:50;9.87;;;7.83;;
73733;SDS011;62039;50.000;9.064;2022-11-20T03:10:16;10.07;;;8.47;;
73733;SDS011;62039;50.000;9.064;2022-11-20T03:12:43;10.23;;;7.90;;
73733;SDS011;62039;50.000;9.064;2022-11-20T03:15:09;9.67;;;7.67;;
73733;SDS011;62039;50.000;9.064;2022-11-20T03:17:37;10.03;;;8.13;;
73733;SDS011;62039;50.000;9.064;2022-11-20T03:20:04;8.87;;;7.33;;
73733;SDS011;62039;50.000;9.064;2022-11-20T03:22:32;10.07;;;8.07;;
73733;SDS011;62039;50.000;9.064;2022-11-20T03:24:58;9.07;;;7.60;;
73733;SDS011;62039;50.000;9.064;2022-11-20T03:27:25;8.67;;;7.03;;
73733;SDS011;62039;50.000;9.064;2022-11-20T03:29:51;11.43;;;9.50;;
73733;SDS011;62039;50.000;9.064;2022-11-20T03:32:18;10.90;;;8.53;;
73733;SDS011;62039;50.000;9.064;2022-11-20T03:34:46;9.60;;;7.70;;
73733;SDS011;62039;50.000;9.064;2022-11-20T03:37:12;9.07;;;7.63;;
73733;SDS011;62039;50.000;9.064;2022-11-20T03:39:39;10.27;;;8.07;;
73733;SDS011;62039;50.000;9.064;2022-11-20T03:42:05;9.40;;;7.63;;
73733;SDS011;62039;50.000;9.064;2022-11-20T03:44:32;11.17;;;8.23;;
73733;SDS011;62039;50.000;9.064;2022-11-20T03:46:58;10.37;;;8.47;;
73733;SDS011;62039;50.000;9.064;2022-11-20T03:49:25;10.17;;;7.60;;
73733;SDS011;62039;50.000;9.064;2022-11-20T03:51:53;10.83;;;8.60;;
73733;SDS011;62039;50.000;9.064;2022-11-20T03:54:19;9.90;;;8.10;;
73733;SDS011;62039;50.000;9.064;2022-11-20T03:56:46;9.50;;;7.50;;
73733;SDS011;62039;50.000;9.064;2022-11-20T03:59:13;10.00;;;7.60;;
73733;SDS011;62039;50.000;9.064;2022-11-20T04:01:39;8.43;;;7.13;;
73733;SDS011;62039;50.000;9.064;2022-11-20T04:04:13;8.70;;;6.93;;
73733;SDS011;62039;50.000;9.064;2022-11-20T04:06:40;8.30;;;6.93;;
73733;SDS011;62039;50.000;9.064;2022-11-20T04:09:07;9.10;;;7.60;;
73733;SDS011;62039;50.000;9.064;2022-11-20T04:11:35;8.97;;;7.23;;
73733;SDS011;62039;50.000;9.064;2022-11-20T04:14:03;8.23;;;6.90;;
73733;SDS011;62039;50.000;9.064;2022-11-20T04:16:31;8.00;;;6.87;;
73733;SDS011;62039;50.000;9.064;2022-11-20T04:19:00;9.37;;;7.07;;
73733;SDS011;62039;50.000;9.064;2022-11-20T04:21:28;7.70;;;6.77;;
73733;SDS011;62039;50.000;9.064;2022-11-20T04:23:55;9.97;;;7.47;;
73733;SDS011;62039;50.000;9.064;2022-11-20T04:26:24;9.30;;;7.63;;
73733;SDS011;62039;50.000;9.064;2022-11-20T04:28:53;8.33;;;6.43;;
73733;SDS011;62039;50.000;9.064;2022-11-20T04:31:20;8.60;;;7.00;;
73733;SDS011;62039;50.000;9.064;2022-11-20T04:33:49;8.23;;;7.27;;
73733;SDS011;62039;50.000;9.064;2022-11-20T04:36:16;8.43;;;6.93;;
73733;SDS011;62039;50.000;9.064;2022-11-20T04:38:44;10.43;;;7.00;;
73733;SDS011;62039;50.000;9.064;2022-11-20T04:41:13;9.33;;;7.40;;
73733;SDS011;62039;50.000;9.064;2022-11-20T04:43:45;8.20;;;6.70;;
73733;SDS011;62039;50.000;9.064;2022-11-20T04:46:12;9.40;;;7.10;;
73733;SDS011;62039;50.000;9.064;2022-11-20T04:48:39;9.00;;;7.17;;
73733;SDS011;62039;50.000;9.064;2022-11-20T04:51:05;9.27;;;7.50;;
73733;SDS011;62039;50.000;9.064;2022-11-20T04:53:32;8.97;;;7.13;;
73733;SDS011;62039;50.000;9.064;2022-11-20T04:55:59;8.27;;;6.67;;
73733;SDS011;62039;50.000;9.064;2022-11-20T04:58:26;9.13;;;7.50;;
73733;SDS011;62039;50.000;9.064;2022-11-20T05:00:54;9.97;;;8.17;;
73733;SDS011;62039;50.000;9.064;2022-11-20T05:03:27;8.83;;;7.43;;
73733;SDS011;62039;50.000;9.064;2022-11-20T05:05:53;8.07;;;7.27;;
73733;SDS011;62039;50.000;9.064;2022-11-20T05:08:20;10.10;;;7.00;;
73733;SDS011;62039;50.000;9.064;2022-11-20T05:10:46;9.87;;;7.90;;
73733;SDS011;62039;50.000;9.064;2022-11-20T05:13:13;8.63;;;7.13;;
73733;SDS011;62039;50.000;9.064;2022-11-20T05:15:39;9.50;;;7.47;;
73733;SDS011;62039;50.000;9.064;2022-11-20T05:18:07;9.53;;;7.20;;
73733;SDS011;62039;50.000;9.064;2022-11-20T05:20:34;9.77;;;7.37;;
73733;SDS011;62039;50.000;9.064;2022-11-20T05:23:00;9.53;;;7.40;;
73733;SDS011;62039;50.000;9.064;2022-11-20T05:25:27;7.67;;;6.60;;
73733;SDS011;62039;50.000;9.064;2022-11-20T05:27:54;9.03;;;7.10;;
73733;SDS011;62039;50.000;9.064;2022-11-20T05:30:20;9.23;;;7.07;;
73733;SDS011;62039;50.000;9.064;2022-11-20T05:32:47;9.13;;;7.17;;
73733;SDS011;62039;50.000;9.064;2022-11-20T05:35:15;7.70;;;6.70;;
73733;SDS011;62039;50.000;9.064;2022-11-20T05:37:42;11.40;;;8.10;;
73733;SDS011;62039;50.000;9.064;2022-11-20T05:40:09;10.10;;;8.00;;
73733;SDS011;62039;50.000;9.064;2022-11-20T05:42:36;10.70;;;7.60;;
73733;SDS011;62039;50.000;9.064;2022-11-20T05:45:03;11.77;;;9.13;;
73733;SDS011;62039;50.000;9.064;2022-11-20T05:47:31;10.63;;;9.00;;
73733;SDS011;62039;50.000;9.064;2022-11-20T05:49:59;10.80;;;8.00;;
73733;SDS011;62039;50.000;9.064;2022-11-20T05:52:29;8.70;;;6.93;;
73733;SDS011;62039;50.000;9.064;2022-11-20T05:54:56;8.17;;;6.27;;
73733;SDS011;62039;50.000;9.064;2022-11-20T05:57:22;10.07;;;7.20;;
73733;SDS011;62039;50.000;9.064;2022-11-20T05:59:49;9.27;;;6.97;;
73733;SDS011;62039;50.000;9.064;2022-11-20T06:02:15;9.43;;;7.20;;
73733;SDS011;62039;50.000;9.064;2022-11-20T06:04:42;7.60;;;6.00;;
73733;SDS011;62039;50.000;9.064;2022-11-20T06:07:09;9.60;;;7.27;;
73733;SDS011;62039;50.000;9.064;2022-11-20T06:09:37;8.63;;;7.03;;
73733;SDS011;62039;50.000;9.064;2022-11-20T06:12:03;8.57;;;6.57;;
73733;SDS011;62039;50.000;9.064;2022-11-20T06:14:30;10.03;;;6.47;;
73733;SDS011;62039;50.000;9.064;2022-11-20T06:16:57;9.33;;;7.27;;
73733;SDS011;62039;50.000;9.064;2022-11-20T06:19:24;7.70;;;6.00;;
73733;SDS011;62039;50.000;9.064;2022-11-20T06:21:50;9.50;;;7.03;;
73733;SDS011;62039;50.000;9.064;2022-11-20T06:24:17;9.57;;;6.93;;
73733;SDS011;62039;50.000;9.064;2022-11-20T06:26:45;9.20;;;6.50;;
73733;SDS011;62039;50.000;9.064;2022-11-20T06:29:11;7.33;;;5.80;;
73733;SDS011;62039;50.000;9.064;2022-11-20T06:31:38;7.13;;;5.70;;
73733;SDS011;62039;50.000;9.064;2022-11-20T06:34:05;8.23;;;6.03;;
73733;SDS011;62039;50.000;9.064;2022-11-20T06:36:32;9.07;;;6.57;;
73733;SDS011;62039;50.000;9.064;2022-11-20T06:38:59;8.67;;;6.30;;
73733;SDS011;62039;50.000;9.064;2022-11-20T06:41:26;9.60;;;6.40;;
73733;SDS011;62039;50.000;9.064;2022-11-20T06:43:54;7.87;;;6.03;;
73733;SDS011;62039;50.000;9.064;2022-11-20T06:46:21;8.27;;;6.20;;
73733;SDS011;62039;50.000;9.064;2022-11-20T06:48:48;9.27;;;7.07;;
73733;SDS011;62039;50.000;9.064;2022-11-20T06:51:15;8.93;;;6.37;;
73733;SDS011;62039;50.000;9.064;2022-11-20T06:53:42;8.63;;;6.13;;
73733;SDS011;62039;50.000;9.064;2022-11-20T06:56:08;8.90;;;6.03;;
73733;SDS011;62039;50.000;9.064;2022-11-20T06:58:35;8.63;;;6.73;;
73733;SDS011;62039;50.000;9.064;2022-11-20T07:01:04;9.87;;;7.33;;
73733;SDS011;62039;50.000;9.064;2022-11-20T07:03:32;10.07;;;7.20;;
73733;SDS011;62039;50.000;9.064;2022-11-20T07:05:59;9.33;;;7.13;;
73733;SDS011;62039;50.000;9.064;2022-11-20T07:08:27;8.17;;;6.63;;
73733;SDS011;62039;50.000;9.064;2022-11-20T07:10:56;9.03;;;6.70;;
73733;SDS011;62039;50.000;9.064;2022-11-20T07:13:23;10.03;;;7.20;;
73733;SDS011;62039;50.000;9.064;2022-11-20T07:15:50;9.13;;;7.17;;
73733;SDS011;62039;50.000;9.064;2022-11-20T07:18:18;8.67;;;6.37;;
73733;SDS011;62039;50.000;9.064;2022-11-20T07:20:44;9.90;;;7.13;;
73733;SDS011;62039;50.000;9.064;2022-11-20T07:23:11;9.63;;;7.37;;
73733;SDS011;62039;50.000;9.064;2022-11-20T07:25:37;10.80;;;7.63;;
73733;SDS011;62039;50.000;9.064;2022-11-20T07:28:04;9.07;;;6.47;;
73733;SDS011;62039;50.000;9.064;2022-11-20T07:30:31;9.80;;;7.17;;
73733;SDS011;62039;50.000;9.064;2022-11-20T07:32:57;11.20;;;7.60;;
73733;SDS011;62039;50.000;9.064;2022-11-20T07:35:25;11.53;;;7.97;;
73733;SDS011;62039;50.000;9.064;2022-11-20T07:37:52;9.57;;;6.83;;
73733;SDS011;62039;50.000;9.064;2022-11-20T07:40:18;10.77;;;8.27;;
73733;SDS011;62039;50.000;9.064;2022-11-20T07:42:49;9.60;;;7.40;;
73733;SDS011;62039;50.000;9.064;2022-11-20T07:45:16;11.93;;;7.67;;
73733;SDS011;62039;50.000;9.064;2022-11-20T07:47:42;9.23;;;7.27;;
73733;SDS011;62039;50.000;9.064;2022-11-20T07:50:09;8.63;;;6.47;;
73733;SDS011;62039;50.000;9.064;2022-11-20T07:52:38;8.97;;;6.97;;
73733;SDS011;62039;50.000;9.064;2022-11-20T07:55:05;11.63;;;8.83;;
73733;SDS011;62039;50.000;9.064;2022-11-20T07:57:32;11.37;;;7.87;;
73733;SDS011;62039;50.000;9.064;2022-11-20T07:59:59;9.77;;;6.63;;
73733;SDS011;62039;50.000;9.064;2022-11-20T08:02:25;10.07;;;7.03;;
73733;SDS011;62039;50.000;9.064;2022-11-20T08:04:52;9.07;;;6.27;;
73733;SDS011;62039;50.000;9.064;2022-11-20T08:07:18;8.57;;;7.03;;
73733;SDS011;62039;50.000;9.064;2022-11-20T08:09:46;9.10;;;7.30;;
73733;SDS011;62039;50.000;9.064;2022-11-20T08:12:16;9.17;;;7.03;;
73733;SDS011;62039;50.000;9.064;2022-11-20T08:14:44;9.27;;;7.80;;
73733;SDS011;62039;50.000;9.064;2022-11-20T08:17:10;19.90;;;12.83;;
73733;SDS011;62039;50.000;9.064;2022-11-20T08:19:37;14.23;;;9.97;;
73733;SDS011;62039;50.000;9.064;2022-11-20T08:22:03;17.40;;;12.23;;
73733;SDS011;62039;50.000;9.064;2022-11-20T08:24:30;20.77;;;12.70;;
73733;SDS011;62039;50.000;9.064;2022-11-20T08:26:58;12.63;;;9.00;;
73733;SDS011;62039;50.000;9.064;2022-11-20T08:29:25;9.90;;;6.60;;
73733;SDS011;62039;50.000;9.064;2022-11-20T08:31:52;9.73;;;7.50;;
73733;SDS011;62039;50.000;9.064;2022-11-20T08:34:18;18.60;;;11.87;;
73733;SDS011;62039;50.000;9.064;2022-11-20T08:36:45;16.83;;;10.40;;
73733;SDS011;62039;50.000;9.064;2022-11-20T08:39:12;10.37;;;7.23;;
73733;SDS011;62039;50.000;9.064;2022-11-20T08:41:39;8.60;;;6.90;;
73733;SDS011;62039;50.000;9.064;2022-11-20T08:44:07;9.87;;;7.80;;
73733;SDS011;62039;50.000;9.064;2022-11-20T08:46:35;9.40;;;7.40;;
73733;SDS011;62039;50.000;9.064;2022-11-20T08:49:03;9.93;;;7.23;;
73733;SDS011;62039;50.000;9.064;2022-11-20T08:51:30;11.50;;;9.63;;
73733;SDS011;62039;50.000;9.064;2022-11-20T08:53:56;10.73;;;8.30;;
73733;SDS011;62039;50.000;9.064;2022-11-20T08:56:23;11.77;;;10.30;;
73733;SDS011;62039;50.000;9.064;2022-11-20T08:58:50;12.07;;;10.00;;
73733;SDS011;62039;50.000;9.064;2022-11-20T09:01:38;9.20;;;7.73;;
73733;SDS011;62039;50.000;9.064;2022-11-20T09:04:05;8.40;;;7.10;;
73733;SDS011;62039;50.000;9.064;2022-11-20T09:06:32;7.10;;;5.77;;
73733;SDS011;62039;50.000;9.064;2022-11-20T09:08:58;6.90;;;6.00;;
73733;SDS011;62039;50.000;9.064;2022-11-20T09:11:31;7.40;;;6.33;;
73733;SDS011;62039;50.000;9.064;2022-11-20T09:13:58;9.03;;;7.53;;
73733;SDS011;62039;50.000;9.064;2022-11-20T09:16:25;8.10;;;6.57;;
73733;SDS011;62039;50.000;9.064;2022-11-20T09:18:53;7.30;;;6.33;;
73733;SDS011;62039;50.000;9.064;2022-11-20T09:21:39;17.77;;;11.13;;
73733;SDS011;62039;50.000;9.064;2022-11-20T09:24:06;15.50;;;10.10;;
73733;SDS011;62039;50.000;9.064;2022-11-20T09:26:33;8.63;;;6.80;;
73733;SDS011;62039;50.000;9.064;2022-11-20T09:28:59;6.50;;;5.43;;
73733;SDS011;62039;50.000;9.064;2022-11-20T09:31:26;6.70;;;5.43;;
73733;SDS011;62039;50.000;9.064;2022-11-20T09:33:54;7.07;;;5.60;;
73733;SDS011;62039;50.000;9.064;2022-11-20T09:36:20;6.87;;;5.50;;
73733;SDS011;62039;50.000;9.064;2022-11-20T09:38:47;5.70;;;5.10;;
73733;SDS011;62039;50.000;9.064;2022-11-20T09:41:19;7.53;;;5.17;;
73733;SDS011;62039;50.000;9.064;2022-11-20T09:44:02;8.00;;;5.67;;
73733;SDS011;62039;50.000;9.064;2022-11-20T09:46:37;5.90;;;5.20;;
73733;SDS011;62039;50.000;9.064;2022-11-20T09:49:17;6.53;;;4.60;;
73733;SDS011;62039;50.000;9.064;2022-11-20T09:51:58;5.70;;;4.60;;
73733;SDS011;62039;50.000;9.064;2022-11-20T09:54:40;6.77;;;5.50;;
73733;SDS011;62039;50.000;9.064;2022-11-20T09:57:08;9.00;;;6.33;;
73733;SDS011;62039;50.000;9.064;2022-11-20T09:59:38;7.43;;;5.23;;
73733;SDS011;62039;50.000;9.064;2022-11-20T10:02:12;6.37;;;4.90;;
73733;SDS011;62039;50.000;9.064;2022-11-20T10:04:46;6.87;;;4.97;;
73733;SDS011;62039;50.000;9.064;2022-11-20T10:07:19;6.60;;;4.87;;
73733;SDS011;62039;50.000;9.064;2022-11-20T10:09:58;7.10;;;5.00;;
73733;SDS011;62039;50.000;9.064;2022-11-20T10:12:27;6.10;;;4.97;;
73733;SDS011;62039;50.000;9.064;2022-11-20T10:15:06;7.47;;;5.20;;
73733;SDS011;62039;50.000;9.064;2022-11-20T10:17:55;6.53;;;4.93;;
73733;SDS011;62039;50.000;9.064;2022-11-20T10:20:38;5.97;;;4.93;;
73733;SDS011;62039;50.000;9.064;2022-11-20T10:23:23;5.70;;;4.63;;
73733;SDS011;62039;50.000;9.064;2022-11-20T10:26:02;6.40;;;5.07;;
73733;SDS011;62039;50.000;9.064;2022-11-20T10:28:34;6.30;;;4.90;;
73733;SDS011;62039;50.000;9.064;2022-11-20T10:31:24;7.23;;;5.83;;
73733;SDS011;62039;50.000;9.064;2022-11-20T10:33:55;6.47;;;5.50;;
73733;SDS011;62039;50.000;9.064;2022-11-20T10:36:47;6.83;;;4.93;;
73733;SDS011;62039;50.000;9.064;2022-11-20T10:39:21;5.97;;;4.90;;
73733;SDS011;62039;50.000;9.064;2022-11-20T10:41:54;5.20;;;4.67;;
73733;SDS011;62039;50.000;9.064;2022-11-20T10:44:26;6.03;;;4.77;;
73733;SDS011;62039;50.000;9.064;2022-11-20T10:46:54;6.47;;;5.33;;
73733;SDS011;62039;50.000;9.064;2022-11-20T10:49:21;9.07;;;7.03;;
73733;SDS011;62039;50.000;9.064;2022-11-20T10:51:54;10.00;;;7.47;;
73733;SDS011;62039;50.000;9.064;2022-11-20T10:54:32;7.87;;;6.43;;
73733;SDS011;62039;50.000;9.064;2022-11-20T10:57:06;5.90;;;4.83;;
73733;SDS011;62039;50.000;9.064;2022-11-20T10:59:45;6.83;;;5.33;;
73733;SDS011;62039;50.000;9.064;2022-11-20T11:02:21;6.37;;;5.60;;
73733;SDS011;62039;50.000;9.064;2022-11-20T11:04:50;6.20;;;5.30;;
73733;SDS011;62039;50.000;9.064;2022-11-20T11:07:20;7.43;;;5.33;;
73733;SDS011;62039;50.000;9.064;2022-11-20T11:09:49;6.03;;;5.43;;
73733;SDS011;62039;50.000;9.064;2022-11-20T11:12:18;8.37;;;6.83;;
73733;SDS011;62039;50.000;9.064;2022-11-20T11:14:47;6.50;;;5.80;;
73733;SDS011;62039;50.000;9.064;2022-11-20T11:17:20;5.80;;;5.00;;
73733;SDS011;62039;50.000;9.064;2022-11-20T11:19:56;6.33;;;5.07;;
73733;SDS011;62039;50.000;9.064;2022-11-20T11:22:29;6.73;;;5.27;;
73733;SDS011;62039;50.000;9.064;2022-11-20T11:24:57;7.63;;;5.53;;
73733;SDS011;62039;50.000;9.064;2022-11-20T11:27:24;10.30;;;7.57;;
73733;SDS011;62039;50.000;9.064;2022-11-20T11:29:50;10.87;;;7.07;;
73733;SDS011;62039;50.000;9.064;2022-11-20T11:32:28;8.83;;;6.73;;
73733;SDS011;62039;50.000;9.064;2022-11-20T11:34:58;8.47;;;6.77;;
73733;SDS011;62039;50.000;9.064;2022-11-20T11:37:26;6.57;;;5.07;;
73733;SDS011;62039;50.000;9.064;2022-11-20T11:40:00;5.30;;;4.80;;
73733;SDS011;62039;50.000;9.064;2022-11-20T11:42:50;6.33;;;5.47;;
73733;SDS011;62039;50.000;9.064;2022-11-20T11:45:20;7.27;;;6.27;;
73733;SDS011;62039;50.000;9.064;2022-11-20T11:47:48;7.33;;;6.27;;
73733;SDS011;62039;50.000;9.064;2022-11-20T11:50:18;7.47;;;6.10;;
73733;SDS011;62039;50.000;9.064;2022-11-20T11:52:51;6.83;;;5.60;;
73733;SDS011;62039;50.000;9.064;2022-11-20T11:55:29;6.07;;;5.27;;
73733;SDS011;62039;50.000;9.064;2022-11-20T11:58:11;5.83;;;5.23;;
73733;SDS011;62039;50.000;9.064;2022-11-20T12:00:49;7.97;;;6.70;;
73733;SDS011;62039;50.000;9.064;2022-11-20T12:03:24;8.30;;;6.63;;
73733;SDS011;62039;50.000;9.064;2022-11-20T12:05:56;7.40;;;6.60;;
73733;SDS011;62039;50.000;9.064;2022-11-20T12:08:28;6.30;;;5.60;;
73733;SDS011;62039;50.000;9.064;2022-11-20T12:11:00;5.53;;;4.97;;
73733;SDS011;62039;50.000;9.064;2022-11-20T12:13:34;6.93;;;5.63;;
73733;SDS011;62039;50.000;9.064;2022-11-20T12:16:10;6.57;;;5.87;;
73733;SDS011;62039;50.000;9.064;2022-11-20T12:18:38;7.33;;;6.50;;
73733;SDS011;62039;50.000;9.064;2022-11-20T12:21:11;7.50;;;6.23;;
73733;SDS011;62039;50.000;9.064;2022-11-20T12:23:49;24.73;;;14.90;;
73733;SDS011;62039;50.000;9.064;2022-11-20T12:26:29;11.33;;;8.90;;
73733;SDS011;62039;50.000;9.064;2022-11-20T12:29:06;9.60;;;7.37;;
73733;SDS011;62039;50.000;9.064;2022-11-20T12:31:44;8.80;;;7.07;;
73733;SDS011;62039;50.000;9.064;2022-11-20T12:34:22;7.33;;;6.23;;
73733;SDS011;62039;50.000;9.064;2022-11-20T12:36:59;8.07;;;6.60;;
73733;SDS011;62039;50.000;9.064;2022-11-20T12:39:40;6.43;;;5.47;;
73733;SDS011;62039;50.000;9.064;2022-11-20T12:48:12;6.07;;;5.33;;
73733;SDS011;62039;50.000;9.064;2022-11-20T12:50:51;7.57;;;5.80;;
73733;SDS011;62039;50.000;9.064;2022-11-20T12:53:44;7.33;;;5.93;;
73733;SDS011;62039;50.000;9.064;2022-11-20T12:56:26;10.20;;;5.53;;
73733;SDS011;62039;50.000;9.064;2022-11-20T12:59:04;6.57;;;5.63;;
73733;SDS011;62039;50.000;9.064;2022-11-20T13:01:44;8.37;;;6.70;;
73733;SDS011;62039;50.000;9.064;2022-11-20T13:04:32;7.40;;;6.27;;
73733;SDS011;62039;50.000;9.064;2022-11-20T13:07:12;6.57;;;5.70;;
73733;SDS011;62039;50.000;9.064;2022-11-20T13:09:40;6.80;;;5.80;;
73733;SDS011;62039;50.000;9.064;2022-11-20T13:12:12;7.40;;;6.17;;
73733;SDS011;62039;50.000;9.064;2022-11-20T13:14:42;6.00;;;5.40;;
73733;SDS011;62039;50.000;9.064;2022-11-20T13:17:17;7.17;;;5.80;;
73733;SDS011;62039;50.000;9.064;2022-11-20T13:19:52;6.87;;;5.83;;
73733;SDS011;62039;50.000;9.064;2022-11-20T13:22:24;7.90;;;5.40;;
73733;SDS011;62039;50.000;9.064;2022-11-20T13:24:51;6.13;;;5.53;;
73733;SDS011;62039;50.000;9.064;2022-11-20T13:27:20;6.93;;;5.60;;
73733;SDS011;62039;50.000;9.064;2022-11-20T13:30:02;10.27;;;7.87;;
73733;SDS011;62039;50.000;9.064;2022-11-20T13:32:47;6.77;;;5.70;;
73733;SDS011;62039;50.000;9.064;2022-11-20T13:35:23;6.27;;;5.50;;
73733;SDS011;62039;50.000;9.064;2022-11-20T13:37:59;4.97;;;4.47;;
73733;SDS011;62039;50.000;9.064;2022-11-20T13:40:27;4.97;;;4.47;;
73733;SDS011;62039;50.000;9.064;2022-11-20T13:43:04;5.63;;;4.57;;
73733;SDS011;62039;50.000;9.064;2022-11-20T13:45:37;6.13;;;4.53;;
73733;SDS011;62039;50.000;9.064;2022-11-20T13:48:04;5.87;;;5.27;;
73733;SDS011;62039;50.000;9.064;2022-11-20T13:50:46;5.13;;;4.60;;
73733;SDS011;62039;50.000;9.064;2022-11-20T13:53:25;6.37;;;4.40;;
73733;SDS011;62039;50.000;9.064;2022-11-20T13:56:04;6.20;;;5.53;;
73733;SDS011;62039;50.000;9.064;2022-11-20T13:58:40;7.73;;;6.90;;
73733;SDS011;62039;50.000;9.064;2022-11-20T14:01:16;9.33;;;8.20;;
73733;SDS011;62039;50.000;9.064;2022-11-20T14:03:46;12.30;;;9.43;;
73733;SDS011;62039;50.000;9.064;2022-11-20T14:06:32;14.53;;;10.53;;
73733;SDS011;62039;50.000;9.064;2022-11-20T14:09:00;12.17;;;9.67;;
73733;SDS011;62039;50.000;9.064;2022-11-20T14:11:28;10.53;;;8.40;;
73733;SDS011;62039;50.000;9.064;2022-11-20T14:13:58;6.97;;;6.13;;
73733;SDS011;62039;50.000;9.064;2022-11-20T14:16:27;7.13;;;6.07;;
73733;SDS011;62039;50.000;9.064;2022-11-20T14:18:55;7.27;;;6.23;;
73733;SDS011;62039;50.000;9.064;2022-11-20T14:21:23;10.10;;;7.73;;
73733;SDS011;62039;50.000;9.064;2022-11-20T14:24:02;8.63;;;7.67;;
73733;SDS011;62039;50.000;9.064;2022-11-20T14:26:29;6.80;;;6.00;;
73733;SDS011;62039;50.000;9.064;2022-11-20T14:28:58;8.70;;;6.77;;
73733;SDS011;62039;50.000;9.064;2022-11-20T14:31:26;8.07;;;6.83;;
73733;SDS011;62039;50.000;9.064;2022-11-20T14:33:54;6.70;;;5.60;;
73733;SDS011;62039;50.000;9.064;2022-11-20T14:36:22;6.27;;;5.13;;
73733;SDS011;62039;50.000;9.064;2022-11-20T14:38:50;6.57;;;5.67;;
73733;SDS011;62039;50.000;9.064;2022-11-20T14:41:19;6.33;;;5.40;;
73733;SDS011;62039;50.000;9.064;2022-11-20T14:43:47;7.77;;;6.57;;
73733;SDS011;62039;50.000;9.064;2022-11-20T14:46:20;6.83;;;5.93;;
73733;SDS011;62039;50.000;9.064;2022-11-20T14:48:49;7.90;;;6.90;;
73733;SDS011;62039;50.000;9.064;2022-11-20T14:51:25;6.87;;;5.73;;
73733;SDS011;62039;50.000;9.064;2022-11-20T14:53:55;7.43;;;6.20;;
73733;SDS011;62039;50.000;9.064;2022-11-20T14:56:23;7.10;;;6.00;;
73733;SDS011;62039;50.000;9.064;2022-11-20T14:58:56;6.97;;;5.93;;
73733;SDS011;62039;50.000;9.064;2022-11-20T15:01:26;7.27;;;6.53;;
73733;SDS011;62039;50.000;9.064;2022-11-20T15:03:59;9.77;;;7.93;;